sensor_id;sensor_type;location;lat;lon;timestamp;temperature;humidity
68251;DHT22;55066;51.560;4.642;2023-08-01T00:00:53;15.56;99.99
68251;DHT22;55066;51.560;4.642;2023-08-01T00:03:18;15.57;99.99
68251;DHT22;55066;51.560;4.642;2023-08-01T00:05:44;15.59;99.99
68251;DHT22;55066;51.560;4.642;2023-08-01T00:08:11;15.53;99.99
68251;DHT22;55066;51.560;4.642;2023-08-01T00:10:40;15.53;99.99
68251;DHT22;55066;51.560;4.642;2023-08-01T00:13:07;15.56;99.99
68251;DHT22;55066;51.560;4.642;2023-08-01T00:15:33;15.52;99.99
68251;DHT22;55066;51.560;4.642;2023-08-01T00:17:58;15.52;99.99
68251;DHT22;55066;51.560;4.642;2023-08-01T00:20:25;15.60;99.99
68251;DHT22;55066;51.560;4.642;2023-08-01T00:22:50;15.36;99.99
68251;DHT22;55066;51.560;4.642;2023-08-01T00:25:17;15.49;99.99
68251;DHT22;55066;51.560;4.642;2023-08-01T00:27:42;15.42;99.99
68251;DHT22;55066;51.560;4.642;2023-08-01T00:30:08;15.33;99.99
68251;DHT22;55066;51.560;4.642;2023-08-01T00:32:35;15.28;99.99
68251;DHT22;55066;51.560;4.642;2023-08-01T00:35:00;15.33;99.99
68251;DHT22;55066;51.560;4.642;2023-08-01T00:37:26;15.18;99.99
68251;DHT22;55066;51.560;4.642;2023-08-01T00:39:51;15.14;99.99
68251;DHT22;55066;51.560;4.642;2023-08-01T00:42:17;15.16;99.99
68251;DHT22;55066;51.560;4.642;2023-08-01T00:44:42;15.32;99.99
68251;DHT22;55066;51.560;4.642;2023-08-01T00:47:08;15.23;99.99
68251;DHT22;55066;51.560;4.642;2023-08-01T00:49:34;15.42;99.99
68251;DHT22;55066;51.560;4.642;2023-08-01T00:52:00;15.50;99.99
68251;DHT22;55066;51.560;4.642;2023-08-01T00:54:25;15.44;99.99
68251;DHT22;55066;51.560;4.642;2023-08-01T00:56:52;15.47;99.99
68251;DHT22;55066;51.560;4.642;2023-08-01T00:59:18;15.59;99.99
68251;DHT22;55066;51.560;4.642;2023-08-01T01:01:43;15.49;99.99
68251;DHT22;55066;51.560;4.642;2023-08-01T01:04:09;15.44;99.99
68251;DHT22;55066;51.560;4.642;2023-08-01T01:06:41;15.49;99.99
68251;DHT22;55066;51.560;4.642;2023-08-01T01:09:16;15.52;99.99
68251;DHT22;55066;51.560;4.642;2023-08-01T01:11:42;15.49;99.99
68251;DHT22;55066;51.560;4.642;2023-08-01T01:14:07;15.46;99.99
68251;DHT22;55066;51.560;4.642;2023-08-01T01:16:33;15.52;99.99
68251;DHT22;55066;51.560;4.642;2023-08-01T01:18:59;15.47;99.99
68251;DHT22;55066;51.560;4.642;2023-08-01T01:21:24;15.59;99.99
68251;DHT22;55066;51.560;4.642;2023-08-01T01:23:50;15.66;99.99
68251;DHT22;55066;51.560;4.642;2023-08-01T01:26:17;15.70;99.99
68251;DHT22;55066;51.560;4.642;2023-08-01T01:28:48;15.67;99.99
68251;DHT22;55066;51.560;4.642;2023-08-01T01:31:14;15.69;99.99
68251;DHT22;55066;51.560;4.642;2023-08-01T01:33:41;15.71;99.99
68251;DHT22;55066;51.560;4.642;2023-08-01T01:36:06;15.66;99.99
68251;DHT22;55066;51.560;4.642;2023-08-01T01:38:33;15.60;99.99
68251;DHT22;55066;51.560;4.642;2023-08-01T01:40:59;15.50;99.99
68251;DHT22;55066;51.560;4.642;2023-08-01T01:43:24;15.64;99.99
68251;DHT22;55066;51.560;4.642;2023-08-01T01:45:50;15.80;99.99
68251;DHT22;55066;51.560;4.642;2023-08-01T01:48:15;15.66;99.99
68251;DHT22;55066;51.560;4.642;2023-08-01T01:50:40;15.60;99.99
68251;DHT22;55066;51.560;4.642;2023-08-01T01:53:06;15.63;99.99
68251;DHT22;55066;51.560;4.642;2023-08-01T01:55:31;15.70;99.99
68251;DHT22;55066;51.560;4.642;2023-08-01T01:57:58;15.76;99.99
68251;DHT22;55066;51.560;4.642;2023-08-01T02:00:23;15.69;99.99
68251;DHT22;55066;51.560;4.642;2023-08-01T02:02:49;15.70;99.99
68251;DHT22;55066;51.560;4.642;2023-08-01T02:05:14;15.63;99.99
68251;DHT22;55066;51.560;4.642;2023-08-01T02:07:39;15.61;99.99
68251;DHT22;55066;51.560;4.642;2023-08-01T02:10:05;15.69;99.99
68251;DHT22;55066;51.560;4.642;2023-08-01T02:12:32;15.76;99.99
68251;DHT22;55066;51.560;4.642;2023-08-01T02:15:00;15.74;99.99
68251;DHT22;55066;51.560;4.642;2023-08-01T02:17:26;15.52;99.99
68251;DHT22;55066;51.560;4.642;2023-08-01T02:19:51;15.66;99.99
68251;DHT22;55066;51.560;4.642;2023-08-01T02:22:17;15.60;99.99
68251;DHT22;55066;51.560;4.642;2023-08-01T02:24:42;15.64;99.99
68251;DHT22;55066;51.560;4.642;2023-08-01T02:27:08;15.70;99.99
68251;DHT22;55066;51.560;4.642;2023-08-01T02:29:34;15.74;99.99
68251;DHT22;55066;51.560;4.642;2023-08-01T02:31:59;15.59;99.99
68251;DHT22;55066;51.560;4.642;2023-08-01T02:34:24;15.66;99.99
68251;DHT22;55066;51.560;4.642;2023-08-01T02:36:50;15.57;99.99
68251;DHT22;55066;51.560;4.642;2023-08-01T02:39:15;15.66;99.99
68251;DHT22;55066;51.560;4.642;2023-08-01T02:41:41;15.64;99.99
68251;DHT22;55066;51.560;4.642;2023-08-01T02:44:06;15.60;99.99
68251;DHT22;55066;51.560;4.642;2023-08-01T02:46:32;15.53;99.99
68251;DHT22;55066;51.560;4.642;2023-08-01T02:48:57;15.57;99.99
68251;DHT22;55066;51.560;4.642;2023-08-01T02:51:23;15.53;99.99
68251;DHT22;55066;51.560;4.642;2023-08-01T02:53:48;15.57;99.99
68251;DHT22;55066;51.560;4.642;2023-08-01T02:56:14;15.53;99.99
68251;DHT22;55066;51.560;4.642;2023-08-01T02:58:39;15.50;99.99
68251;DHT22;55066;51.560;4.642;2023-08-01T03:01:08;15.42;99.99
68251;DHT22;55066;51.560;4.642;2023-08-01T03:03:35;15.49;99.99
68251;DHT22;55066;51.560;4.642;2023-08-01T03:06:02;15.53;99.99
68251;DHT22;55066;51.560;4.642;2023-08-01T03:08:27;15.57;99.99
68251;DHT22;55066;51.560;4.642;2023-08-01T03:10:54;15.60;99.99
68251;DHT22;55066;51.560;4.642;2023-08-01T03:13:19;15.54;99.99
68251;DHT22;55066;51.560;4.642;2023-08-01T03:15:45;15.53;99.99
68251;DHT22;55066;51.560;4.642;2023-08-01T03:18:10;15.53;99.99
68251;DHT22;55066;51.560;4.642;2023-08-01T03:20:36;15.53;99.99
68251;DHT22;55066;51.560;4.642;2023-08-01T03:23:02;15.63;99.99
68251;DHT22;55066;51.560;4.642;2023-08-01T03:25:27;15.52;99.99
68251;DHT22;55066;51.560;4.642;2023-08-01T03:27:54;15.49;99.99
68251;DHT22;55066;51.560;4.642;2023-08-01T03:30:20;15.46;99.99
68251;DHT22;55066;51.560;4.642;2023-08-01T03:32:46;15.46;99.99
68251;DHT22;55066;51.560;4.642;2023-08-01T03:35:13;15.38;99.99
68251;DHT22;55066;51.560;4.642;2023-08-01T03:37:40;15.46;99.99
68251;DHT22;55066;51.560;4.642;2023-08-01T03:40:06;15.49;99.99
68251;DHT22;55066;51.560;4.642;2023-08-01T03:42:35;15.40;99.99
68251;DHT22;55066;51.560;4.642;2023-08-01T03:45:00;15.49;99.99
68251;DHT22;55066;51.560;4.642;2023-08-01T03:47:26;15.49;99.99
68251;DHT22;55066;51.560;4.642;2023-08-01T03:49:51;15.56;99.99
68251;DHT22;55066;51.560;4.642;2023-08-01T03:52:17;15.53;99.99
68251;DHT22;55066;51.560;4.642;2023-08-01T03:54:42;15.50;99.99
68251;DHT22;55066;51.560;4.642;2023-08-01T03:57:08;15.42;99.99
68251;DHT22;55066;51.560;4.642;2023-08-01T03:59:33;15.47;99.99
68251;DHT22;55066;51.560;4.642;2023-08-01T04:01:59;15.53;99.99
68251;DHT22;55066;51.560;4.642;2023-08-01T04:04:24;15.59;99.99
68251;DHT22;55066;51.560;4.642;2023-08-01T04:06:50;15.57;99.99
68251;DHT22;55066;51.560;4.642;2023-08-01T04:09:15;15.40;99.99
68251;DHT22;55066;51.560;4.642;2023-08-01T04:11:41;15.36;99.99
68251;DHT22;55066;51.560;4.642;2023-08-01T04:14:06;15.32;99.99
68251;DHT22;55066;51.560;4.642;2023-08-01T04:16:32;15.33;99.99
68251;DHT22;55066;51.560;4.642;2023-08-01T04:18:57;15.50;99.99
68251;DHT22;55066;51.560;4.642;2023-08-01T04:21:22;15.64;99.99
68251;DHT22;55066;51.560;4.642;2023-08-01T04:23:48;15.67;99.99
68251;DHT22;55066;51.560;4.642;2023-08-01T04:26:13;15.71;99.99
68251;DHT22;55066;51.560;4.642;2023-08-01T04:28:39;15.69;99.99
68251;DHT22;55066;51.560;4.642;2023-08-01T04:31:05;15.77;99.99
68251;DHT22;55066;51.560;4.642;2023-08-01T04:33:30;15.74;99.99
68251;DHT22;55066;51.560;4.642;2023-08-01T04:35:55;15.73;99.99
68251;DHT22;55066;51.560;4.642;2023-08-01T04:38:21;15.76;99.99
68251;DHT22;55066;51.560;4.642;2023-08-01T04:40:46;15.88;99.99
68251;DHT22;55066;51.560;4.642;2023-08-01T04:43:13;15.80;99.99
68251;DHT22;55066;51.560;4.642;2023-08-01T04:45:38;15.84;99.99
68251;DHT22;55066;51.560;4.642;2023-08-01T04:48:04;15.81;99.99
68251;DHT22;55066;51.560;4.642;2023-08-01T04:50:29;15.71;99.99
68251;DHT22;55066;51.560;4.642;2023-08-01T04:52:55;15.73;99.99
68251;DHT22;55066;51.560;4.642;2023-08-01T04:55:20;15.74;99.99
68251;DHT22;55066;51.560;4.642;2023-08-01T04:57:47;15.83;99.99
68251;DHT22;55066;51.560;4.642;2023-08-01T05:00:13;15.77;99.99
68251;DHT22;55066;51.560;4.642;2023-08-01T05:02:38;15.71;99.99
68251;DHT22;55066;51.560;4.642;2023-08-01T05:05:04;15.52;99.99
68251;DHT22;55066;51.560;4.642;2023-08-01T05:07:30;15.57;99.99
68251;DHT22;55066;51.560;4.642;2023-08-01T05:09:55;15.57;99.99
68251;DHT22;55066;51.560;4.642;2023-08-01T05:12:21;15.32;99.99
68251;DHT22;55066;51.560;4.642;2023-08-01T05:14:47;15.16;99.99
68251;DHT22;55066;51.560;4.642;2023-08-01T05:17:12;15.14;99.99
68251;DHT22;55066;51.560;4.642;2023-08-01T05:19:37;15.26;99.99
68251;DHT22;55066;51.560;4.642;2023-08-01T05:22:03;15.47;99.99
68251;DHT22;55066;51.560;4.642;2023-08-01T05:24:29;15.28;99.99
68251;DHT22;55066;51.560;4.642;2023-08-01T05:26:54;15.25;99.99
68251;DHT22;55066;51.560;4.642;2023-08-01T05:29:19;15.40;99.99
68251;DHT22;55066;51.560;4.642;2023-08-01T05:31:45;15.44;99.99
68251;DHT22;55066;51.560;4.642;2023-08-01T05:34:10;15.42;99.99
68251;DHT22;55066;51.560;4.642;2023-08-01T05:36:36;15.42;99.99
68251;DHT22;55066;51.560;4.642;2023-08-01T05:39:02;15.54;99.99
68251;DHT22;55066;51.560;4.642;2023-08-01T05:41:28;15.67;99.99
68251;DHT22;55066;51.560;4.642;2023-08-01T05:43:54;15.59;99.99
68251;DHT22;55066;51.560;4.642;2023-08-01T05:46:19;15.81;99.99
68251;DHT22;55066;51.560;4.642;2023-08-01T05:48:45;16.11;99.99
68251;DHT22;55066;51.560;4.642;2023-08-01T05:51:11;16.04;99.99
68251;DHT22;55066;51.560;4.642;2023-08-01T05:53:36;15.87;99.99
68251;DHT22;55066;51.560;4.642;2023-08-01T05:56:02;15.78;99.99
68251;DHT22;55066;51.560;4.642;2023-08-01T05:58:27;15.86;99.99
68251;DHT22;55066;51.560;4.642;2023-08-01T06:00:53;16.08;99.99
68251;DHT22;55066;51.560;4.642;2023-08-01T06:03:18;16.02;99.99
68251;DHT22;55066;51.560;4.642;2023-08-01T06:05:43;16.38;99.99
68251;DHT22;55066;51.560;4.642;2023-08-01T06:08:09;16.43;99.99
68251;DHT22;55066;51.560;4.642;2023-08-01T06:10:35;16.52;99.99
68251;DHT22;55066;51.560;4.642;2023-08-01T06:13:01;16.60;99.99
68251;DHT22;55066;51.560;4.642;2023-08-01T06:15:27;16.85;99.99
68251;DHT22;55066;51.560;4.642;2023-08-01T06:17:52;17.04;99.99
68251;DHT22;55066;51.560;4.642;2023-08-01T06:20:18;17.10;99.99
68251;DHT22;55066;51.560;4.642;2023-08-01T06:22:44;16.99;99.99
68251;DHT22;55066;51.560;4.642;2023-08-01T06:25:09;16.94;99.99
68251;DHT22;55066;51.560;4.642;2023-08-01T06:27:35;16.79;99.99
68251;DHT22;55066;51.560;4.642;2023-08-01T06:30:00;16.67;99.99
68251;DHT22;55066;51.560;4.642;2023-08-01T06:32:26;16.72;99.99
68251;DHT22;55066;51.560;4.642;2023-08-01T06:34:51;16.79;99.99
68251;DHT22;55066;51.560;4.642;2023-08-01T06:37:17;16.72;99.99
68251;DHT22;55066;51.560;4.642;2023-08-01T06:39:43;16.94;99.99
68251;DHT22;55066;51.560;4.642;2023-08-01T06:42:08;17.03;99.99
68251;DHT22;55066;51.560;4.642;2023-08-01T06:44:34;16.87;99.99
68251;DHT22;55066;51.560;4.642;2023-08-01T06:46:59;16.93;99.99
68251;DHT22;55066;51.560;4.642;2023-08-01T06:49:25;16.81;99.99
68251;DHT22;55066;51.560;4.642;2023-08-01T06:51:50;16.66;99.99
68251;DHT22;55066;51.560;4.642;2023-08-01T06:54:16;16.59;99.99
68251;DHT22;55066;51.560;4.642;2023-08-01T06:56:41;16.57;99.99
68251;DHT22;55066;51.560;4.642;2023-08-01T06:59:15;16.43;99.99
68251;DHT22;55066;51.560;4.642;2023-08-01T07:01:42;16.51;99.99
68251;DHT22;55066;51.560;4.642;2023-08-01T07:04:12;16.70;99.99
68251;DHT22;55066;51.560;4.642;2023-08-01T07:06:38;16.84;99.99
68251;DHT22;55066;51.560;4.642;2023-08-01T07:09:04;16.95;99.99
68251;DHT22;55066;51.560;4.642;2023-08-01T07:11:30;17.04;99.99
68251;DHT22;55066;51.560;4.642;2023-08-01T07:13:55;17.24;99.99
68251;DHT22;55066;51.560;4.642;2023-08-01T07:16:21;17.56;99.99
68251;DHT22;55066;51.560;4.642;2023-08-01T07:18:46;17.76;99.99
68251;DHT22;55066;51.560;4.642;2023-08-01T07:21:13;17.72;99.99
68251;DHT22;55066;51.560;4.642;2023-08-01T07:23:39;17.86;99.99
68251;DHT22;55066;51.560;4.642;2023-08-01T07:26:04;17.82;99.99
68251;DHT22;55066;51.560;4.642;2023-08-01T07:28:30;17.61;99.99
68251;DHT22;55066;51.560;4.642;2023-08-01T07:31:03;17.52;99.99
68251;DHT22;55066;51.560;4.642;2023-08-01T07:33:30;17.49;99.99
68251;DHT22;55066;51.560;4.642;2023-08-01T07:35:56;17.49;99.99
68251;DHT22;55066;51.560;4.642;2023-08-01T07:38:21;17.34;99.99
68251;DHT22;55066;51.560;4.642;2023-08-01T07:40:47;17.46;99.99
68251;DHT22;55066;51.560;4.642;2023-08-01T07:43:12;17.75;99.99
68251;DHT22;55066;51.560;4.642;2023-08-01T07:45:38;17.42;99.99
68251;DHT22;55066;51.560;4.642;2023-08-01T07:48:04;16.90;99.99
68251;DHT22;55066;51.560;4.642;2023-08-01T07:50:30;16.80;99.99
68251;DHT22;55066;51.560;4.642;2023-08-01T07:52:55;16.91;99.99
68251;DHT22;55066;51.560;4.642;2023-08-01T07:55:21;16.84;99.99
68251;DHT22;55066;51.560;4.642;2023-08-01T07:57:49;16.76;99.99
68251;DHT22;55066;51.560;4.642;2023-08-01T08:00:16;16.77;99.99
68251;DHT22;55066;51.560;4.642;2023-08-01T08:02:42;16.67;99.99
68251;DHT22;55066;51.560;4.642;2023-08-01T08:05:09;16.57;99.99
68251;DHT22;55066;51.560;4.642;2023-08-01T08:07:36;16.63;99.99
68251;DHT22;55066;51.560;4.642;2023-08-01T08:10:02;16.79;99.99
68251;DHT22;55066;51.560;4.642;2023-08-01T08:12:27;16.93;99.99
68251;DHT22;55066;51.560;4.642;2023-08-01T08:14:53;17.28;99.99
68251;DHT22;55066;51.560;4.642;2023-08-01T08:17:18;17.63;99.99
68251;DHT22;55066;51.560;4.642;2023-08-01T08:19:44;17.94;99.99
68251;DHT22;55066;51.560;4.642;2023-08-01T08:22:09;17.61;99.99
68251;DHT22;55066;51.560;4.642;2023-08-01T08:24:35;17.27;99.99
68251;DHT22;55066;51.560;4.642;2023-08-01T08:27:00;17.24;99.99
68251;DHT22;55066;51.560;4.642;2023-08-01T08:29:26;17.35;99.99
68251;DHT22;55066;51.560;4.642;2023-08-01T08:31:51;17.35;99.99
68251;DHT22;55066;51.560;4.642;2023-08-01T08:34:17;17.25;99.99
68251;DHT22;55066;51.560;4.642;2023-08-01T08:36:42;17.21;99.99
68251;DHT22;55066;51.560;4.642;2023-08-01T08:39:08;17.19;99.99
68251;DHT22;55066;51.560;4.642;2023-08-01T08:41:47;17.48;99.99
68251;DHT22;55066;51.560;4.642;2023-08-01T08:44:15;17.86;99.99
68251;DHT22;55066;51.560;4.642;2023-08-01T08:46:42;17.93;99.99
68251;DHT22;55066;51.560;4.642;2023-08-01T08:49:11;17.76;99.99
68251;DHT22;55066;51.560;4.642;2023-08-01T08:51:37;17.59;99.99
68251;DHT22;55066;51.560;4.642;2023-08-01T08:54:04;17.67;99.99
68251;DHT22;55066;51.560;4.642;2023-08-01T08:56:30;17.59;99.99
68251;DHT22;55066;51.560;4.642;2023-08-01T08:58:56;17.55;99.99
68251;DHT22;55066;51.560;4.642;2023-08-01T09:01:22;17.48;99.99
68251;DHT22;55066;51.560;4.642;2023-08-01T09:03:47;17.50;99.99
68251;DHT22;55066;51.560;4.642;2023-08-01T09:06:17;17.72;99.99
68251;DHT22;55066;51.560;4.642;2023-08-01T09:09:04;17.97;99.99
68251;DHT22;55066;51.560;4.642;2023-08-01T09:11:48;18.13;99.99
68251;DHT22;55066;51.560;4.642;2023-08-01T09:14:14;18.21;99.99
68251;DHT22;55066;51.560;4.642;2023-08-01T09:16:41;18.22;99.99
68251;DHT22;55066;51.560;4.642;2023-08-01T09:19:07;18.30;99.99
68251;DHT22;55066;51.560;4.642;2023-08-01T09:21:33;18.55;99.99
68251;DHT22;55066;51.560;4.642;2023-08-01T09:24:08;18.01;99.99
68251;DHT22;55066;51.560;4.642;2023-08-01T09:26:34;17.19;99.99
68251;DHT22;55066;51.560;4.642;2023-08-01T09:28:59;17.31;99.99
68251;DHT22;55066;51.560;4.642;2023-08-01T09:31:36;17.57;99.99
68251;DHT22;55066;51.560;4.642;2023-08-01T09:34:03;17.73;99.99
68251;DHT22;55066;51.560;4.642;2023-08-01T09:36:33;17.77;99.99
68251;DHT22;55066;51.560;4.642;2023-08-01T09:39:03;17.76;99.99
68251;DHT22;55066;51.560;4.642;2023-08-01T09:41:30;17.94;99.99
68251;DHT22;55066;51.560;4.642;2023-08-01T09:43:56;17.98;99.99
68251;DHT22;55066;51.560;4.642;2023-08-01T09:46:22;17.65;99.99
68251;DHT22;55066;51.560;4.642;2023-08-01T09:48:47;17.53;99.99
68251;DHT22;55066;51.560;4.642;2023-08-01T09:51:15;17.56;99.99
68251;DHT22;55066;51.560;4.642;2023-08-01T09:53:55;17.62;99.99
68251;DHT22;55066;51.560;4.642;2023-08-01T09:56:25;17.73;99.99
68251;DHT22;55066;51.560;4.642;2023-08-01T09:58:55;18.17;99.99
68251;DHT22;55066;51.560;4.642;2023-08-01T10:01:23;18.58;99.99
68251;DHT22;55066;51.560;4.642;2023-08-01T10:03:50;18.32;99.99
68251;DHT22;55066;51.560;4.642;2023-08-01T10:06:23;18.25;99.98
68251;DHT22;55066;51.560;4.642;2023-08-01T10:08:51;18.07;99.99
68251;DHT22;55066;51.560;4.642;2023-08-01T10:11:18;18.55;99.99
68251;DHT22;55066;51.560;4.642;2023-08-01T10:13:45;18.66;99.58
68251;DHT22;55066;51.560;4.642;2023-08-01T10:16:11;18.49;99.99
68251;DHT22;55066;51.560;4.642;2023-08-01T10:18:38;18.21;99.99
68251;DHT22;55066;51.560;4.642;2023-08-01T10:21:05;18.34;99.99
68251;DHT22;55066;51.560;4.642;2023-08-01T10:23:33;18.69;98.76
68251;DHT22;55066;51.560;4.642;2023-08-01T10:26:00;18.85;98.33
68251;DHT22;55066;51.560;4.642;2023-08-01T10:28:33;19.11;98.78
68251;DHT22;55066;51.560;4.642;2023-08-01T10:31:15;19.08;97.74
68251;DHT22;55066;51.560;4.642;2023-08-01T10:33:43;18.92;98.51
68251;DHT22;55066;51.560;4.642;2023-08-01T10:36:19;18.86;99.26
68251;DHT22;55066;51.560;4.642;2023-08-01T10:38:56;18.73;99.00
68251;DHT22;55066;51.560;4.642;2023-08-01T10:43:51;19.21;98.40
68251;DHT22;55066;51.560;4.642;2023-08-01T10:46:17;19.13;98.24
68251;DHT22;55066;51.560;4.642;2023-08-01T10:48:52;19.17;97.52
68251;DHT22;55066;51.560;4.642;2023-08-01T10:51:18;18.83;98.31
68251;DHT22;55066;51.560;4.642;2023-08-01T10:53:44;18.87;99.99
68251;DHT22;55066;51.560;4.642;2023-08-01T10:56:18;19.24;99.99
68251;DHT22;55066;51.560;4.642;2023-08-01T10:58:44;19.94;97.41
68251;DHT22;55066;51.560;4.642;2023-08-01T11:01:09;20.12;98.48
68251;DHT22;55066;51.560;4.642;2023-08-01T11:03:36;20.12;95.74
68251;DHT22;55066;51.560;4.642;2023-08-01T11:06:02;19.57;97.00
68251;DHT22;55066;51.560;4.642;2023-08-01T11:08:38;19.24;96.66
68251;DHT22;55066;51.560;4.642;2023-08-01T11:11:05;19.92;95.61
68251;DHT22;55066;51.560;4.642;2023-08-01T11:13:32;20.24;94.95
68251;DHT22;55066;51.560;4.642;2023-08-01T11:16:03;20.41;93.54
68251;DHT22;55066;51.560;4.642;2023-08-01T11:18:28;20.23;92.60
68251;DHT22;55066;51.560;4.642;2023-08-01T11:20:54;20.41;93.67
68251;DHT22;55066;51.560;4.642;2023-08-01T11:23:27;20.82;91.95
68251;DHT22;55066;51.560;4.642;2023-08-01T11:25:53;20.59;92.45
68251;DHT22;55066;51.560;4.642;2023-08-01T11:28:20;20.43;93.32
68251;DHT22;55066;51.560;4.642;2023-08-01T11:30:45;20.48;92.25
68251;DHT22;55066;51.560;4.642;2023-08-01T11:33:24;20.07;94.40
68251;DHT22;55066;51.560;4.642;2023-08-01T11:35:55;20.13;96.21
68251;DHT22;55066;51.560;4.642;2023-08-01T11:38:26;20.47;95.13
68251;DHT22;55066;51.560;4.642;2023-08-01T11:40:56;20.64;94.83
68251;DHT22;55066;51.560;4.642;2023-08-01T11:43:22;20.49;93.59
68251;DHT22;55066;51.560;4.642;2023-08-01T11:45:48;20.48;93.21
68251;DHT22;55066;51.560;4.642;2023-08-01T11:48:14;20.45;94.56
68251;DHT22;55066;51.560;4.642;2023-08-01T11:50:39;20.37;94.26
68251;DHT22;55066;51.560;4.642;2023-08-01T11:53:05;20.54;91.62
68251;DHT22;55066;51.560;4.642;2023-08-01T11:55:34;20.72;92.04
68251;DHT22;55066;51.560;4.642;2023-08-01T11:58:00;20.75;92.00
68251;DHT22;55066;51.560;4.642;2023-08-01T12:00:29;20.61;91.31
68251;DHT22;55066;51.560;4.642;2023-08-01T12:03:08;21.11;91.02
68251;DHT22;55066;51.560;4.642;2023-08-01T12:05:41;21.69;89.60
68251;DHT22;55066;51.560;4.642;2023-08-01T12:08:14;21.91;85.55
68251;DHT22;55066;51.560;4.642;2023-08-01T12:10:42;22.22;86.25
68251;DHT22;55066;51.560;4.642;2023-08-01T12:13:21;21.74;86.55
68251;DHT22;55066;51.560;4.642;2023-08-01T12:15:52;22.92;86.44
68251;DHT22;55066;51.560;4.642;2023-08-01T12:18:28;22.63;85.31
68251;DHT22;55066;51.560;4.642;2023-08-01T12:20:54;22.16;86.12
68251;DHT22;55066;51.560;4.642;2023-08-01T12:23:20;22.49;84.82
68251;DHT22;55066;51.560;4.642;2023-08-01T12:25:47;22.63;84.62
68251;DHT22;55066;51.560;4.642;2023-08-01T12:28:16;23.34;84.32
68251;DHT22;55066;51.560;4.642;2023-08-01T12:30:43;22.95;85.38
68251;DHT22;55066;51.560;4.642;2023-08-01T12:33:09;22.99;84.89
68251;DHT22;55066;51.560;4.642;2023-08-01T12:35:34;23.52;85.37
68251;DHT22;55066;51.560;4.642;2023-08-01T12:37:59;24.18;84.35
68251;DHT22;55066;51.560;4.642;2023-08-01T12:40:25;24.09;82.30
68251;DHT22;55066;51.560;4.642;2023-08-01T12:42:50;24.04;83.54
68251;DHT22;55066;51.560;4.642;2023-08-01T12:45:16;24.01;82.28
68251;DHT22;55066;51.560;4.642;2023-08-01T12:47:41;24.39;82.47
68251;DHT22;55066;51.560;4.642;2023-08-01T12:50:07;23.96;83.43
68251;DHT22;55066;51.560;4.642;2023-08-01T12:52:33;23.54;84.31
68251;DHT22;55066;51.560;4.642;2023-08-01T12:54:58;23.16;83.82
68251;DHT22;55066;51.560;4.642;2023-08-01T12:57:23;23.59;81.19
68251;DHT22;55066;51.560;4.642;2023-08-01T12:59:49;24.26;82.86
68251;DHT22;55066;51.560;4.642;2023-08-01T13:02:14;24.67;80.55
68251;DHT22;55066;51.560;4.642;2023-08-01T13:04:40;23.97;81.94
68251;DHT22;55066;51.560;4.642;2023-08-01T13:07:06;24.09;81.86
68251;DHT22;55066;51.560;4.642;2023-08-01T13:09:31;23.98;82.78
68251;DHT22;55066;51.560;4.642;2023-08-01T13:11:57;23.82;84.41
68251;DHT22;55066;51.560;4.642;2023-08-01T13:14:24;24.53;79.86
68251;DHT22;55066;51.560;4.642;2023-08-01T13:16:49;23.80;78.92
68251;DHT22;55066;51.560;4.642;2023-08-01T13:19:15;23.71;83.73
68251;DHT22;55066;51.560;4.642;2023-08-01T13:21:40;24.94;80.74
68251;DHT22;55066;51.560;4.642;2023-08-01T13:24:05;24.76;77.81
68251;DHT22;55066;51.560;4.642;2023-08-01T13:26:31;25.27;80.34
68251;DHT22;55066;51.560;4.642;2023-08-01T13:28:57;24.05;82.70
68251;DHT22;55066;51.560;4.642;2023-08-01T13:31:23;23.88;82.36
68251;DHT22;55066;51.560;4.642;2023-08-01T13:33:49;23.60;79.42
68251;DHT22;55066;51.560;4.642;2023-08-01T13:36:14;23.26;80.21
68251;DHT22;55066;51.560;4.642;2023-08-01T13:38:40;23.63;81.61
68251;DHT22;55066;51.560;4.642;2023-08-01T13:41:05;23.96;81.54
68251;DHT22;55066;51.560;4.642;2023-08-01T13:43:31;23.08;81.37
68251;DHT22;55066;51.560;4.642;2023-08-01T13:45:56;24.19;82.11
68251;DHT22;55066;51.560;4.642;2023-08-01T13:48:22;23.98;83.41
68251;DHT22;55066;51.560;4.642;2023-08-01T13:50:47;23.49;82.37
68251;DHT22;55066;51.560;4.642;2023-08-01T13:53:13;24.29;81.15
68251;DHT22;55066;51.560;4.642;2023-08-01T13:55:40;25.67;80.19
68251;DHT22;55066;51.560;4.642;2023-08-01T13:58:05;24.39;78.53
68251;DHT22;55066;51.560;4.642;2023-08-01T14:00:31;24.16;84.36
68251;DHT22;55066;51.560;4.642;2023-08-01T14:02:57;23.33;80.19
68251;DHT22;55066;51.560;4.642;2023-08-01T14:05:26;24.02;80.63
68251;DHT22;55066;51.560;4.642;2023-08-01T14:07:52;25.17;76.71
68251;DHT22;55066;51.560;4.642;2023-08-01T14:10:18;24.26;74.91
68251;DHT22;55066;51.560;4.642;2023-08-01T14:12:43;25.14;79.82
68251;DHT22;55066;51.560;4.642;2023-08-01T14:15:09;24.70;79.51
68251;DHT22;55066;51.560;4.642;2023-08-01T14:17:35;25.06;75.70
68251;DHT22;55066;51.560;4.642;2023-08-01T14:20:01;25.49;77.51
68251;DHT22;55066;51.560;4.642;2023-08-01T14:22:29;25.61;75.98
68251;DHT22;55066;51.560;4.642;2023-08-01T14:24:54;26.27;74.78
68251;DHT22;55066;51.560;4.642;2023-08-01T14:27:20;26.05;76.15
68251;DHT22;55066;51.560;4.642;2023-08-01T14:29:45;25.61;73.17
68251;DHT22;55066;51.560;4.642;2023-08-01T14:32:10;26.48;75.83
68251;DHT22;55066;51.560;4.642;2023-08-01T14:34:36;24.97;74.37
68251;DHT22;55066;51.560;4.642;2023-08-01T14:37:01;25.27;83.98
68251;DHT22;55066;51.560;4.642;2023-08-01T14:39:27;25.61;73.87
68251;DHT22;55066;51.560;4.642;2023-08-01T14:41:53;26.31;76.00
68251;DHT22;55066;51.560;4.642;2023-08-01T14:44:19;25.31;73.55
68251;DHT22;55066;51.560;4.642;2023-08-01T14:46:44;24.14;83.08
68251;DHT22;55066;51.560;4.642;2023-08-01T14:49:10;24.21;78.13
68251;DHT22;55066;51.560;4.642;2023-08-01T14:51:35;24.87;77.81
68251;DHT22;55066;51.560;4.642;2023-08-01T14:54:01;25.70;79.85
68251;DHT22;55066;51.560;4.642;2023-08-01T14:56:26;24.90;80.18
68251;DHT22;55066;51.560;4.642;2023-08-01T14:58:52;24.37;73.66
68251;DHT22;55066;51.560;4.642;2023-08-01T15:01:17;24.91;76.04
68251;DHT22;55066;51.560;4.642;2023-08-01T15:03:46;25.41;80.83
68251;DHT22;55066;51.560;4.642;2023-08-01T15:06:11;25.00;75.26
68251;DHT22;55066;51.560;4.642;2023-08-01T15:08:38;24.80;74.63
68251;DHT22;55066;51.560;4.642;2023-08-01T15:11:05;24.45;77.39
68251;DHT22;55066;51.560;4.642;2023-08-01T15:13:31;24.51;76.91
68251;DHT22;55066;51.560;4.642;2023-08-01T15:15:57;23.69;78.14
68251;DHT22;55066;51.560;4.642;2023-08-01T15:18:23;23.59;82.69
68251;DHT22;55066;51.560;4.642;2023-08-01T15:20:48;23.98;81.70
68251;DHT22;55066;51.560;4.642;2023-08-01T15:23:14;23.97;77.87
68251;DHT22;55066;51.560;4.642;2023-08-01T15:25:39;23.61;79.85
68251;DHT22;55066;51.560;4.642;2023-08-01T15:28:04;24.16;81.63